sensor_id;sensor_type;location;lat;lon;timestamp;P1;durP1;ratioP1;P2;durP2;ratioP2
29206;SDS011;16247;50.840;4.382;2023-04-06T00:04:41;20.45;;;10.90;;
29206;SDS011;16247;50.840;4.382;2023-04-06T00:07:23;17.15;;;9.68;;
29206;SDS011;16247;50.840;4.382;2023-04-06T00:09:56;18.88;;;10.00;;
29206;SDS011;16247;50.840;4.382;2023-04-06T00:15:15;17.85;;;10.55;;
29206;SDS011;16247;50.840;4.382;2023-04-06T00:17:45;17.00;;;10.65;;
29206;SDS011;16247;50.840;4.382;2023-04-06T00:20:30;22.73;;;11.52;;
29206;SDS011;16247;50.840;4.382;2023-04-06T00:26:24;18.63;;;10.40;;
29206;SDS011;16247;50.840;4.382;2023-04-06T00:35:02;18.35;;;11.10;;
29206;SDS011;16247;50.840;4.382;2023-04-06T00:48:07;18.35;;;10.77;;
29206;SDS011;16247;50.840;4.382;2023-04-06T00:51:01;20.23;;;11.30;;
29206;SDS011;16247;50.840;4.382;2023-04-06T00:56:51;19.70;;;10.68;;
29206;SDS011;16247;50.840;4.382;2023-04-06T00:59:59;21.85;;;11.02;;
29206;SDS011;16247;50.840;4.382;2023-04-06T01:08:13;21.17;;;10.65;;
29206;SDS011;16247;50.840;4.382;2023-04-06T01:11:10;20.52;;;12.25;;
29206;SDS011;16247;50.840;4.382;2023-04-06T01:13:38;21.45;;;11.50;;
29206;SDS011;16247;50.840;4.382;2023-04-06T01:16:24;19.15;;;10.90;;
29206;SDS011;16247;50.840;4.382;2023-04-06T01:19:14;17.90;;;11.98;;
29206;SDS011;16247;50.840;4.382;2023-04-06T01:21:54;21.45;;;11.38;;
29206;SDS011;16247;50.840;4.382;2023-04-06T01:25:00;24.05;;;12.38;;
29206;SDS011;16247;50.840;4.382;2023-04-06T01:27:46;20.30;;;12.07;;
29206;SDS011;16247;50.840;4.382;2023-04-06T01:30:14;25.30;;;13.23;;
29206;SDS011;16247;50.840;4.382;2023-04-06T01:32:44;25.15;;;12.48;;
29206;SDS011;16247;50.840;4.382;2023-04-06T01:35:11;22.20;;;12.40;;
29206;SDS011;16247;50.840;4.382;2023-04-06T01:38:17;24.80;;;12.10;;
29206;SDS011;16247;50.840;4.382;2023-04-06T01:43:50;20.55;;;11.63;;
29206;SDS011;16247;50.840;4.382;2023-04-06T01:46:22;19.70;;;12.07;;
29206;SDS011;16247;50.840;4.382;2023-04-06T01:49:27;26.15;;;14.48;;
29206;SDS011;16247;50.840;4.382;2023-04-06T01:52:16;22.27;;;13.15;;
29206;SDS011;16247;50.840;4.382;2023-04-06T01:54:44;22.80;;;12.32;;
29206;SDS011;16247;50.840;4.382;2023-04-06T01:57:19;24.77;;;12.35;;
29206;SDS011;16247;50.840;4.382;2023-04-06T02:00:10;22.00;;;12.43;;
29206;SDS011;16247;50.840;4.382;2023-04-06T02:03:34;22.02;;;12.57;;
29206;SDS011;16247;50.840;4.382;2023-04-06T02:06:25;21.35;;;12.45;;
29206;SDS011;16247;50.840;4.382;2023-04-06T02:09:38;20.88;;;11.98;;
29206;SDS011;16247;50.840;4.382;2023-04-06T02:12:26;25.88;;;12.30;;
29206;SDS011;16247;50.840;4.382;2023-04-06T02:15:35;21.75;;;12.20;;
29206;SDS011;16247;50.840;4.382;2023-04-06T02:18:48;24.08;;;13.60;;
29206;SDS011;16247;50.840;4.382;2023-04-06T02:21:44;23.45;;;12.55;;
29206;SDS011;16247;50.840;4.382;2023-04-06T02:24:14;23.02;;;13.32;;
29206;SDS011;16247;50.840;4.382;2023-04-06T02:27:04;27.35;;;13.63;;
29206;SDS011;16247;50.840;4.382;2023-04-06T02:32:18;25.98;;;13.18;;
29206;SDS011;16247;50.840;4.382;2023-04-06T02:34:52;21.55;;;11.88;;
29206;SDS011;16247;50.840;4.382;2023-04-06T02:37:41;21.13;;;11.98;;
29206;SDS011;16247;50.840;4.382;2023-04-06T02:40:15;19.83;;;11.93;;
29206;SDS011;16247;50.840;4.382;2023-04-06T02:45:38;20.42;;;13.05;;
29206;SDS011;16247;50.840;4.382;2023-04-06T02:48:57;22.50;;;12.90;;
29206;SDS011;16247;50.840;4.382;2023-04-06T02:51:34;22.23;;;12.43;;
29206;SDS011;16247;50.840;4.382;2023-04-06T02:54:09;21.83;;;13.40;;
29206;SDS011;16247;50.840;4.382;2023-04-06T02:56:44;18.42;;;12.23;;
29206;SDS011;16247;50.840;4.382;2023-04-06T02:59:15;21.60;;;12.85;;
29206;SDS011;16247;50.840;4.382;2023-04-06T03:02:03;22.83;;;11.95;;
29206;SDS011;16247;50.840;4.382;2023-04-06T03:05:11;24.35;;;13.48;;
29206;SDS011;16247;50.840;4.382;2023-04-06T03:10:11;22.17;;;12.60;;
29206;SDS011;16247;50.840;4.382;2023-04-06T03:13:25;18.17;;;12.77;;
29206;SDS011;16247;50.840;4.382;2023-04-06T03:16:19;22.45;;;13.20;;
29206;SDS011;16247;50.840;4.382;2023-04-06T03:19:07;20.30;;;12.60;;
29206;SDS011;16247;50.840;4.382;2023-04-06T03:21:39;25.65;;;13.40;;
29206;SDS011;16247;50.840;4.382;2023-04-06T03:27:46;21.50;;;13.10;;
29206;SDS011;16247;50.840;4.382;2023-04-06T03:30:14;25.15;;;14.20;;
29206;SDS011;16247;50.840;4.382;2023-04-06T03:32:57;21.25;;;13.07;;
29206;SDS011;16247;50.840;4.382;2023-04-06T03:35:49;20.08;;;12.85;;
29206;SDS011;16247;50.840;4.382;2023-04-06T03:38:26;23.27;;;12.75;;
29206;SDS011;16247;50.840;4.382;2023-04-06T03:41:39;22.25;;;13.95;;
29206;SDS011;16247;50.840;4.382;2023-04-06T03:44:41;20.35;;;13.10;;
29206;SDS011;16247;50.840;4.382;2023-04-06T03:47:48;21.27;;;13.02;;
29206;SDS011;16247;50.840;4.382;2023-04-06T03:50:35;22.52;;;12.65;;
29206;SDS011;16247;50.840;4.382;2023-04-06T03:53:34;27.33;;;12.82;;
29206;SDS011;16247;50.840;4.382;2023-04-06T03:56:45;21.52;;;13.18;;
29206;SDS011;16247;50.840;4.382;2023-04-06T03:59:56;23.15;;;13.45;;
29206;SDS011;16247;50.840;4.382;2023-04-06T04:03:25;24.23;;;13.48;;
29206;SDS011;16247;50.840;4.382;2023-04-06T04:06:34;24.48;;;13.18;;
29206;SDS011;16247;50.840;4.382;2023-04-06T04:14:23;22.20;;;12.38;;
29206;SDS011;16247;50.840;4.382;2023-04-06T04:17:15;19.55;;;12.65;;
29206;SDS011;16247;50.840;4.382;2023-04-06T04:20:25;23.67;;;13.40;;
29206;SDS011;16247;50.840;4.382;2023-04-06T04:23:10;21.05;;;12.90;;
29206;SDS011;16247;50.840;4.382;2023-04-06T04:26:09;23.55;;;13.18;;
29206;SDS011;16247;50.840;4.382;2023-04-06T04:29:33;23.75;;;13.43;;
29206;SDS011;16247;50.840;4.382;2023-04-06T04:34:41;30.75;;;14.38;;
29206;SDS011;16247;50.840;4.382;2023-04-06T04:37:36;21.45;;;13.45;;
29206;SDS011;16247;50.840;4.382;2023-04-06T04:48:35;26.77;;;13.43;;
29206;SDS011;16247;50.840;4.382;2023-04-06T04:51:07;20.77;;;13.13;;
29206;SDS011;16247;50.840;4.382;2023-04-06T04:54:12;24.55;;;13.52;;
29206;SDS011;16247;50.840;4.382;2023-04-06T05:00:21;23.08;;;12.90;;
29206;SDS011;16247;50.840;4.382;2023-04-06T05:03:14;23.40;;;13.45;;
29206;SDS011;16247;50.840;4.382;2023-04-06T05:08:56;27.42;;;14.10;;
29206;SDS011;16247;50.840;4.382;2023-04-06T05:12:08;24.83;;;13.45;;
29206;SDS011;16247;50.840;4.382;2023-04-06T05:15:20;37.17;;;16.23;;
29206;SDS011;16247;50.840;4.382;2023-04-06T05:18:16;24.75;;;13.90;;
29206;SDS011;16247;50.840;4.382;2023-04-06T05:21:45;24.77;;;14.10;;
29206;SDS011;16247;50.840;4.382;2023-04-06T05:30:30;33.50;;;15.40;;
29206;SDS011;16247;50.840;4.382;2023-04-06T05:33:36;23.85;;;13.68;;
29206;SDS011;16247;50.840;4.382;2023-04-06T05:36:54;26.52;;;14.35;;
29206;SDS011;16247;50.840;4.382;2023-04-06T05:39:52;28.67;;;14.52;;
29206;SDS011;16247;50.840;4.382;2023-04-06T05:43:13;27.95;;;15.25;;
29206;SDS011;16247;50.840;4.382;2023-04-06T05:46:07;35.03;;;16.02;;
29206;SDS011;16247;50.840;4.382;2023-04-06T05:48:58;27.88;;;14.32;;
29206;SDS011;16247;50.840;4.382;2023-04-06T05:52:17;28.80;;;15.40;;
29206;SDS011;16247;50.840;4.382;2023-04-06T05:54:43;24.33;;;15.00;;
29206;SDS011;16247;50.840;4.382;2023-04-06T05:57:40;34.08;;;14.98;;
29206;SDS011;16247;50.840;4.382;2023-04-06T06:06:59;27.55;;;14.43;;
29206;SDS011;16247;50.840;4.382;2023-04-06T06:12:17;27.70;;;14.23;;
29206;SDS011;16247;50.840;4.382;2023-04-06T06:15:12;62.15;;;24.63;;
29206;SDS011;16247;50.840;4.382;2023-04-06T06:21:21;25.98;;;15.32;;
29206;SDS011;16247;50.840;4.382;2023-04-06T06:24:17;28.67;;;15.00;;
29206;SDS011;16247;50.840;4.382;2023-04-06T06:27:12;27.70;;;14.30;;
29206;SDS011;16247;50.840;4.382;2023-04-06T06:33:20;25.35;;;13.95;;
29206;SDS011;16247;50.840;4.382;2023-04-06T06:36:10;27.45;;;14.27;;
29206;SDS011;16247;50.840;4.382;2023-04-06T06:38:57;25.17;;;13.30;;
29206;SDS011;16247;50.840;4.382;2023-04-06T06:41:42;23.60;;;13.25;;
29206;SDS011;16247;50.840;4.382;2023-04-06T06:47:09;27.73;;;14.52;;
29206;SDS011;16247;50.840;4.382;2023-04-06T06:50:18;22.95;;;14.10;;
29206;SDS011;16247;50.840;4.382;2023-04-06T06:52:44;28.05;;;16.25;;
29206;SDS011;16247;50.840;4.382;2023-04-06T06:55:44;32.30;;;16.30;;
29206;SDS011;16247;50.840;4.382;2023-04-06T06:58:32;30.25;;;16.20;;
29206;SDS011;16247;50.840;4.382;2023-04-06T07:01:33;26.17;;;15.70;;
29206;SDS011;16247;50.840;4.382;2023-04-06T07:04:37;29.13;;;16.10;;
29206;SDS011;16247;50.840;4.382;2023-04-06T07:07:50;34.38;;;15.77;;
29206;SDS011;16247;50.840;4.382;2023-04-06T07:14:41;31.33;;;16.63;;
29206;SDS011;16247;50.840;4.382;2023-04-06T07:17:43;29.13;;;15.85;;
29206;SDS011;16247;50.840;4.382;2023-04-06T07:20:37;25.05;;;13.98;;
29206;SDS011;16247;50.840;4.382;2023-04-06T07:23:37;24.17;;;13.80;;
29206;SDS011;16247;50.840;4.382;2023-04-06T07:26:20;23.65;;;12.35;;
29206;SDS011;16247;50.840;4.382;2023-04-06T07:28:47;19.52;;;11.90;;
29206;SDS011;16247;50.840;4.382;2023-04-06T07:31:46;23.55;;;11.43;;
29206;SDS011;16247;50.840;4.382;2023-04-06T07:34:43;20.33;;;12.00;;
29206;SDS011;16247;50.840;4.382;2023-04-06T07:37:29;20.60;;;12.65;;
29206;SDS011;16247;50.840;4.382;2023-04-06T07:42:58;17.52;;;10.25;;
29206;SDS011;16247;50.840;4.382;2023-04-06T07:45:47;21.55;;;9.77;;
29206;SDS011;16247;50.840;4.382;2023-04-06T07:48:40;19.15;;;10.50;;
29206;SDS011;16247;50.840;4.382;2023-04-06T07:54:46;18.40;;;10.43;;
29206;SDS011;16247;50.840;4.382;2023-04-06T07:57:36;16.35;;;8.82;;
29206;SDS011;16247;50.840;4.382;2023-04-06T08:11:54;18.80;;;10.57;;
29206;SDS011;16247;50.840;4.382;2023-04-06T08:28:23;18.77;;;9.10;;
29206;SDS011;16247;50.840;4.382;2023-04-06T08:30:49;16.50;;;9.40;;
29206;SDS011;16247;50.840;4.382;2023-04-06T08:33:22;21.50;;;10.40;;
29206;SDS011;16247;50.840;4.382;2023-04-06T08:36:06;18.00;;;10.02;;
29206;SDS011;16247;50.840;4.382;2023-04-06T08:39:17;18.10;;;9.40;;
29206;SDS011;16247;50.840;4.382;2023-04-06T08:42:52;15.75;;;8.93;;
29206;SDS011;16247;50.840;4.382;2023-04-06T08:45:46;21.40;;;11.27;;
29206;SDS011;16247;50.840;4.382;2023-04-06T08:48:36;19.25;;;10.57;;
29206;SDS011;16247;50.840;4.382;2023-04-06T08:53:59;22.42;;;10.50;;
29206;SDS011;16247;50.840;4.382;2023-04-06T08:57:23;15.90;;;9.38;;
29206;SDS011;16247;50.840;4.382;2023-04-06T09:00:09;20.88;;;11.23;;
29206;SDS011;16247;50.840;4.382;2023-04-06T09:03:38;16.70;;;9.90;;
29206;SDS011;16247;50.840;4.382;2023-04-06T09:06:29;17.83;;;10.65;;
29206;SDS011;16247;50.840;4.382;2023-04-06T09:12:30;21.10;;;9.85;;
29206;SDS011;16247;50.840;4.382;2023-04-06T09:15:16;19.55;;;11.30;;
29206;SDS011;16247;50.840;4.382;2023-04-06T09:18:11;19.05;;;10.68;;
29206;SDS011;16247;50.840;4.382;2023-04-06T09:21:04;18.92;;;10.43;;
29206;SDS011;16247;50.840;4.382;2023-04-06T09:24:24;16.17;;;10.23;;
29206;SDS011;16247;50.840;4.382;2023-04-06T09:30:47;17.92;;;9.93;;
29206;SDS011;16247;50.840;4.382;2023-04-06T09:34:26;18.23;;;9.20;;
29206;SDS011;16247;50.840;4.382;2023-04-06T09:44:12;14.73;;;9.02;;
29206;SDS011;16247;50.840;4.382;2023-04-06T09:47:19;15.70;;;8.40;;
29206;SDS011;16247;50.840;4.382;2023-04-06T09:51:02;14.82;;;8.20;;
29206;SDS011;16247;50.840;4.382;2023-04-06T10:00:36;16.40;;;9.98;;
29206;SDS011;16247;50.840;4.382;2023-04-06T10:06:44;14.15;;;8.63;;
29206;SDS011;16247;50.840;4.382;2023-04-06T10:16:02;16.65;;;9.20;;
29206;SDS011;16247;50.840;4.382;2023-04-06T10:19:18;15.32;;;9.60;;
29206;SDS011;16247;50.840;4.382;2023-04-06T10:22:41;15.18;;;9.30;;
29206;SDS011;16247;50.840;4.382;2023-04-06T10:25:33;16.00;;;8.48;;
29206;SDS011;16247;50.840;4.382;2023-04-06T10:29:01;16.02;;;9.07;;
29206;SDS011;16247;50.840;4.382;2023-04-06T10:42:09;17.15;;;9.63;;
29206;SDS011;16247;50.840;4.382;2023-04-06T10:45:30;15.32;;;8.40;;
29206;SDS011;16247;50.840;4.382;2023-04-06T10:51:28;18.08;;;10.15;;
29206;SDS011;16247;50.840;4.382;2023-04-06T10:54:30;17.65;;;10.43;;
29206;SDS011;16247;50.840;4.382;2023-04-06T10:57:41;14.60;;;8.70;;
29206;SDS011;16247;50.840;4.382;2023-04-06T11:03:30;20.20;;;9.75;;
29206;SDS011;16247;50.840;4.382;2023-04-06T11:06:22;17.42;;;10.10;;
29206;SDS011;16247;50.840;4.382;2023-04-06T11:12:27;16.60;;;10.43;;
29206;SDS011;16247;50.840;4.382;2023-04-06T11:15:05;16.20;;;9.13;;
29206;SDS011;16247;50.840;4.382;2023-04-06T11:17:35;14.93;;;9.65;;
29206;SDS011;16247;50.840;4.382;2023-04-06T11:20:34;16.25;;;10.73;;
29206;SDS011;16247;50.840;4.382;2023-04-06T11:28:37;17.38;;;10.40;;
29206;SDS011;16247;50.840;4.382;2023-04-06T11:38:41;20.48;;;11.35;;
29206;SDS011;16247;50.840;4.382;2023-04-06T11:48:24;18.23;;;10.48;;
29206;SDS011;16247;50.840;4.382;2023-04-06T12:11:34;17.75;;;10.40;;
29206;SDS011;16247;50.840;4.382;2023-04-06T12:14:21;21.00;;;11.45;;
29206;SDS011;16247;50.840;4.382;2023-04-06T12:16:56;21.38;;;12.13;;
29206;SDS011;16247;50.840;4.382;2023-04-06T12:19:47;18.17;;;10.63;;
29206;SDS011;16247;50.840;4.382;2023-04-06T12:27:29;18.35;;;11.52;;
29206;SDS011;16247;50.840;4.382;2023-04-06T12:33:01;17.08;;;10.77;;
29206;SDS011;16247;50.840;4.382;2023-04-06T12:36:11;17.80;;;10.68;;
29206;SDS011;16247;50.840;4.382;2023-04-06T12:41:43;16.75;;;11.57;;
29206;SDS011;16247;50.840;4.382;2023-04-06T12:47:00;16.42;;;10.88;;
29206;SDS011;16247;50.840;4.382;2023-04-06T12:52:20;19.77;;;11.07;;
29206;SDS011;16247;50.840;4.382;2023-04-06T12:55:04;16.58;;;10.38;;
29206;SDS011;16247;50.840;4.382;2023-04-06T13:00:09;19.08;;;11.70;;
29206;SDS011;16247;50.840;4.382;2023-04-06T13:05:33;19.20;;;11.25;;
29206;SDS011;16247;50.840;4.382;2023-04-06T13:11:09;18.08;;;11.32;;
29206;SDS011;16247;50.840;4.382;2023-04-06T13:13:50;17.02;;;11.80;;
29206;SDS011;16247;50.840;4.382;2023-04-06T13:16:22;17.77;;;11.70;;
29206;SDS011;16247;50.840;4.382;2023-04-06T13:26:57;20.10;;;12.43;;
29206;SDS011;16247;50.840;4.382;2023-04-06T13:29:50;19.47;;;12.20;;
29206;SDS011;16247;50.840;4.382;2023-04-06T13:40:09;15.32;;;10.90;;
29206;SDS011;16247;50.840;4.382;2023-04-06T13:43:13;19.30;;;11.15;;
29206;SDS011;16247;50.840;4.382;2023-04-06T13:45:55;20.23;;;12.48;;
29206;SDS011;16247;50.840;4.382;2023-04-06T13:48:35;21.83;;;12.43;;
29206;SDS011;16247;50.840;4.382;2023-04-06T14:07:02;18.38;;;12.40;;
29206;SDS011;16247;50.840;4.382;2023-04-06T14:12:32;18.85;;;12.10;;
29206;SDS011;16247;50.840;4.382;2023-04-06T14:15:56;16.40;;;11.38;;
29206;SDS011;16247;50.840;4.382;2023-04-06T14:21:07;17.67;;;12.30;;
29206;SDS011;16247;50.840;4.382;2023-04-06T14:37:00;21.10;;;14.02;;
29206;SDS011;16247;50.840;4.382;2023-04-06T14:42:14;20.27;;;13.50;;
29206;SDS011;16247;50.840;4.382;2023-04-06T14:45:14;21.13;;;13.63;;
29206;SDS011;16247;50.840;4.382;2023-04-06T14:54:34;24.77;;;14.47;;
29206;SDS011;16247;50.840;4.382;2023-04-06T14:57:11;20.02;;;13.73;;
29206;SDS011;16247;50.840;4.382;2023-04-06T14:59:43;20.65;;;14.00;;
29206;SDS011;16247;50.840;4.382;2023-04-06T15:02:31;20.10;;;13.88;;
29206;SDS011;16247;50.840;4.382;2023-04-06T15:05:55;27.55;;;15.48;;
29206;SDS011;16247;50.840;4.382;2023-04-06T15:12:32;19.83;;;13.93;;
29206;SDS011;16247;50.840;4.382;2023-04-06T15:15:45;26.83;;;15.30;;
29206;SDS011;16247;50.840;4.382;2023-04-06T15:19:14;21.55;;;14.55;;
29206;SDS011;16247;50.840;4.382;2023-04-06T15:22:26;26.15;;;15.77;;
29206;SDS011;16247;50.840;4.382;2023-04-06T15:25:03;26.40;;;16.67;;
29206;SDS011;16247;50.840;4.382;2023-04-06T15:31:35;23.17;;;14.70;;
29206;SDS011;16247;50.840;4.382;2023-04-06T15:34:21;21.65;;;14.00;;
29206;SDS011;16247;50.840;4.382;2023-04-06T15:37:01;24.50;;;14.35;;
29206;SDS011;16247;50.840;4.382;2023-04-06T15:39:32;26.00;;;14.70;;
29206;SDS011;16247;50.840;4.382;2023-04-06T15:42:06;23.17;;;14.38;;
29206;SDS011;16247;50.840;4.382;2023-04-06T15:44:33;18.52;;;12.93;;
29206;SDS011;16247;50.840;4.382;2023-04-06T15:47:01;27.42;;;13.75;;
29206;SDS011;16247;50.840;4.382;2023-04-06T15:49:33;21.77;;;14.25;;
29206;SDS011;16247;50.840;4.382;2023-04-06T15:52:02;25.15;;;13.88;;
29206;SDS011;16247;50.840;4.382;2023-04-06T15:54:29;21.60;;;13.75;;
29206;SDS011;16247;50.840;4.382;2023-04-06T15:56:59;23.10;;;13.18;;
29206;SDS011;16247;50.840;4.382;2023-04-06T15:59:48;23.70;;;15.18;;
29206;SDS011;16247;50.840;4.382;2023-04-06T16:02:21;25.45;;;15.05;;
29206;SDS011;16247;50.840;4.382;2023-04-06T16:05:00;22.17;;;15.77;;
29206;SDS011;16247;50.840;4.382;2023-04-06T16:07:39;23.05;;;14.48;;
29206;SDS011;16247;50.840;4.382;2023-04-06T16:10:13;23.00;;;15.50;;
29206;SDS011;16247;50.840;4.382;2023-04-06T16:12:46;26.15;;;15.25;;
29206;SDS011;16247;50.840;4.382;2023-04-06T16:15:15;20.90;;;15.57;;
29206;SDS011;16247;50.840;4.382;2023-04-06T16:17:50;24.25;;;15.38;;
29206;SDS011;16247;50.840;4.382;2023-04-06T16:20:21;21.85;;;16.08;;
29206;SDS011;16247;50.840;4.382;2023-04-06T16:23:14;26.20;;;15.15;;
29206;SDS011;16247;50.840;4.382;2023-04-06T16:25:43;28.48;;;15.73;;
29206;SDS011;16247;50.840;4.382;2023-04-06T16:28:10;25.65;;;14.90;;
29206;SDS011;16247;50.840;4.382;2023-04-06T16:30:40;21.10;;;15.52;;
29206;SDS011;16247;50.840;4.382;2023-04-06T16:38:24;23.58;;;14.43;;
29206;SDS011;16247;50.840;4.382;2023-04-06T16:40:58;26.52;;;14.77;;
29206;SDS011;16247;50.840;4.382;2023-04-06T16:43:26;22.90;;;15.60;;
29206;SDS011;16247;50.840;4.382;2023-04-06T16:45:53;25.02;;;13.00;;
29206;SDS011;16247;50.840;4.382;2023-04-06T16:48:21;20.20;;;12.70;;
29206;SDS011;16247;50.840;4.382;2023-04-06T16:50:52;20.83;;;11.85;;
29206;SDS011;16247;50.840;4.382;2023-04-06T16:53:19;20.65;;;9.45;;
29206;SDS011;16247;50.840;4.382;2023-04-06T16:55:45;20.60;;;9.10;;
29206;SDS011;16247;50.840;4.382;2023-04-06T16:58:12;14.77;;;6.97;;
29206;SDS011;16247;50.840;4.382;2023-04-06T17:00:37;17.30;;;7.00;;
29206;SDS011;16247;50.840;4.382;2023-04-06T17:04:00;10.93;;;5.90;;
29206;SDS011;16247;50.840;4.382;2023-04-06T17:06:31;16.10;;;5.85;;
29206;SDS011;16247;50.840;4.382;2023-04-06T17:09:01;19.48;;;6.05;;
29206;SDS011;16247;50.840;4.382;2023-04-06T17:14:04;11.77;;;4.85;;
29206;SDS011;16247;50.840;4.382;2023-04-06T17:16:31;16.33;;;5.00;;
29206;SDS011;16247;50.840;4.382;2023-04-06T17:19:19;20.63;;;5.43;;
29206;SDS011;16247;50.840;4.382;2023-04-06T17:24:56;17.00;;;4.57;;
29206;SDS011;16247;50.840;4.382;2023-04-06T17:27:40;17.40;;;5.00;;
29206;SDS011;16247;50.840;4.382;2023-04-06T17:30:13;19.13;;;4.85;;
29206;SDS011;16247;50.840;4.382;2023-04-06T17:33:00;13.90;;;4.43;;
29206;SDS011;16247;50.840;4.382;2023-04-06T17:35:32;13.13;;;5.38;;
29206;SDS011;16247;50.840;4.382;2023-04-06T17:38:01;20.70;;;4.95;;
29206;SDS011;16247;50.840;4.382;2023-04-06T17:43:03;19.58;;;4.88;;
29206;SDS011;16247;50.840;4.382;2023-04-06T17:51:32;14.70;;;5.20;;
29206;SDS011;16247;50.840;4.382;2023-04-06T17:57:50;18.40;;;5.82;;
29206;SDS011;16247;50.840;4.382;2023-04-06T18:00:52;18.08;;;6.03;;
29206;SDS011;16247;50.840;4.382;2023-04-06T18:03:38;23.10;;;5.18;;
29206;SDS011;16247;50.840;4.382;2023-04-06T18:06:21;18.55;;;5.43;;
29206;SDS011;16247;50.840;4.382;2023-04-06T18:11:49;16.40;;;5.35;;
29206;SDS011;16247;50.840;4.382;2023-04-06T18:21:07;18.50;;;7.03;;
29206;SDS011;16247;50.840;4.382;2023-04-06T18:24:18;19.33;;;7.65;;
29206;SDS011;16247;50.840;4.382;2023-04-06T18:27:14;19.00;;;7.07;;
29206;SDS011;16247;50.840;4.382;2023-04-06T18:30:35;19.95;;;6.40;;
29206;SDS011;16247;50.840;4.382;2023-04-06T18:33:08;16.95;;;6.10;;
29206;SDS011;16247;50.840;4.382;2023-04-06T18:36:29;20.38;;;6.63;;
29206;SDS011;16247;50.840;4.382;2023-04-06T18:39:45;20.73;;;5.97;;
29206;SDS011;16247;50.840;4.382;2023-04-06T18:42:29;20.88;;;7.57;;
29206;SDS011;16247;50.840;4.382;2023-04-06T18:48:45;14.43;;;6.05;;
29206;SDS011;16247;50.840;4.382;2023-04-06T18:51:43;15.18;;;5.80;;
29206;SDS011;16247;50.840;4.382;2023-04-06T18:54:41;11.57;;;4.97;;
29206;SDS011;16247;50.840;4.382;2023-04-06T18:58:16;13.40;;;4.53;;
29206;SDS011;16247;50.840;4.382;2023-04-06T19:01:36;14.48;;;5.18;;
29206;SDS011;16247;50.840;4.382;2023-04-06T19:04:28;10.90;;;4.70;;
29206;SDS011;16247;50.840;4.382;2023-04-06T19:07:45;9.52;;;4.47;;
29206;SDS011;16247;50.840;4.382;2023-04-06T19:10:51;11.43;;;4.28;;
29206;SDS011;16247;50.840;4.382;2023-04-06T19:14:14;13.75;;;3.58;;
29206;SDS011;16247;50.840;4.382;2023-04-06T19:17:07;10.20;;;4.00;;
29206;SDS011;16247;50.840;4.382;2023-04-06T19:20:12;11.50;;;4.18;;
29206;SDS011;16247;50.840;4.382;2023-04-06T19:23:11;11.70;;;5.03;;
29206;SDS011;16247;50.840;4.382;2023-04-06T19:25:57;8.45;;;4.50;;
29206;SDS011;16247;50.840;4.382;2023-04-06T19:29:12;13.80;;;5.32;;
29206;SDS011;16247;50.840;4.382;2023-04-06T19:32:17;16.92;;;5.53;;
29206;SDS011;16247;50.840;4.382;2023-04-06T19:35:14;8.48;;;4.82;;
29206;SDS011;16247;50.840;4.382;2023-04-06T19:38:04;10.77;;;5.45;;
29206;SDS011;16247;50.840;4.382;2023-04-06T19:40:33;12.27;;;6.40;;
29206;SDS011;16247;50.840;4.382;2023-04-06T19:48:33;11.48;;;6.15;;
29206;SDS011;16247;50.840;4.382;2023-04-06T19:54:21;15.07;;;5.95;;
29206;SDS011;16247;50.840;4.382;2023-04-06T19:56:58;10.63;;;5.85;;
29206;SDS011;16247;50.840;4.382;2023-04-06T19:59:55;13.30;;;6.88;;
29206;SDS011;16247;50.840;4.382;2023-04-06T20:02:36;9.73;;;5.68;;
29206;SDS011;16247;50.840;4.382;2023-04-06T20:08:59;13.73;;;6.85;;
29206;SDS011;16247;50.840;4.382;2023-04-06T20:11:31;13.15;;;6.22;;
29206;SDS011;16247;50.840;4.382;2023-04-06T20:14:06;9.13;;;5.47;;
29206;SDS011;16247;50.840;4.382;2023-04-06T20:16:34;7.82;;;5.18;;
29206;SDS011;16247;50.840;4.382;2023-04-06T20:19:33;9.90;;;5.25;;
29206;SDS011;16247;50.840;4.382;2023-04-06T20:22:43;8.00;;;4.55;;
29206;SDS011;16247;50.840;4.382;2023-04-06T20:25:24;6.25;;;4.35;;
29206;SDS011;16247;50.840;4.382;2023-04-06T20:28:01;5.68;;;3.05;;
29206;SDS011;16247;50.840;4.382;2023-04-06T20:31:24;4.82;;;2.70;;
29206;SDS011;16247;50.840;4.382;2023-04-06T20:33:52;3.60;;;2.65;;
29206;SDS011;16247;50.840;4.382;2023-04-06T20:40:49;5.95;;;3.33;;
29206;SDS011;16247;50.840;4.382;2023-04-06T20:43:17;7.07;;;2.92;;
29206;SDS011;16247;50.840;4.382;2023-04-06T20:48:45;6.10;;;3.28;;
29206;SDS011;16247;50.840;4.382;2023-04-06T20:56:54;5.32;;;2.53;;
29206;SDS011;16247;50.840;4.382;2023-04-06T20:59:28;7.75;;;3.38;;
29206;SDS011;16247;50.840;4.382;2023-04-06T21:01:57;7.75;;;2.90;;
29206;SDS011;16247;50.840;4.382;2023-04-06T21:04:57;7.60;;;2.92;;
29206;SDS011;16247;50.840;4.382;2023-04-06T21:07:49;4.90;;;2.80;;
29206;SDS011;16247;50.840;4.382;2023-04-06T21:17:02;3.42;;;2.42;;
29206;SDS011;16247;50.840;4.382;2023-04-06T21:19:41;4.57;;;2.13;;
29206;SDS011;16247;50.840;4.382;2023-04-06T21:22:19;4.43;;;2.45;;
29206;SDS011;16247;50.840;4.382;2023-04-06T21:24:45;5.07;;;2.60;;
29206;SDS011;16247;50.840;4.382;2023-04-06T21:27:34;5.30;;;2.28;;
29206;SDS011;16247;50.840;4.382;2023-04-06T21:30:15;3.90;;;2.83;;
29206;SDS011;16247;50.840;4.382;2023-04-06T21:32:52;5.70;;;2.50;;
29206;SDS011;16247;50.840;4.382;2023-04-06T21:36:06;3.75;;;2.00;;
29206;SDS011;16247;50.840;4.382;2023-04-06T21:38:59;3.30;;;2.22;;
29206;SDS011;16247;50.840;4.382;2023-04-06T21:41:53;3.03;;;2.13;;
29206;SDS011;16247;50.840;4.382;2023-04-06T21:44:23;4.28;;;2.20;;
29206;SDS011;16247;50.840;4.382;2023-04-06T21:47:08;5.82;;;2.17;;
29206;SDS011;16247;50.840;4.382;2023-04-06T21:49:52;5.90;;;2.30;;
29206;SDS011;16247;50.840;4.382;2023-04-06T21:52:22;3.90;;;2.33;;
29206;SDS011;16247;50.840;4.382;2023-04-06T21:54:54;4.35;;;2.40;;
29206;SDS011;16247;50.840;4.382;2023-04-06T21:58:04;5.80;;;3.10;;
29206;SDS011;16247;50.840;4.382;2023-04-06T22:00:32;3.95;;;2.67;;
29206;SDS011;16247;50.840;4.382;2023-04-06T22:03:14;5.75;;;2.90;;
29206;SDS011;16247;50.840;4.382;2023-04-06T22:05:53;4.70;;;2.42;;
29206;SDS011;16247;50.840;4.382;2023-04-06T22:08:20;7.32;;;3.35;;
29206;SDS011;16247;50.840;4.382;2023-04-06T22:10:59;9.70;;;3.20;;
29206;SDS011;16247;50.840;4.382;2023-04-06T22:13:36;9.63;;;4.57;;
29206;SDS011;16247;50.840;4.382;2023-04-06T22:19:35;8.13;;;3.78;;
29206;SDS011;16247;50.840;4.382;2023-04-06T22:22:28;14.90;;;4.32;;
29206;SDS011;16247;50.840;4.382;2023-04-06T22:25:06;12.95;;;4.43;;
29206;SDS011;16247;50.840;4.382;2023-04-06T22:27:48;15.13;;;5.18;;
29206;SDS011;16247;50.840;4.382;2023-04-06T22:30:24;9.20;;;4.05;;
29206;SDS011;16247;50.840;4.382;2023-04-06T22:32:51;13.98;;;4.88;;
29206;SDS011;16247;50.840;4.382;2023-04-06T22:35:22;10.80;;;5.10;;
29206;SDS011;16247;50.840;4.382;2023-04-06T22:37:54;12.93;;;4.60;;
29206;SDS011;16247;50.840;4.382;2023-04-06T22:40:38;11.40;;;4.57;;
29206;SDS011;16247;50.840;4.382;2023-04-06T22:43:33;16.35;;;4.80;;
29206;SDS011;16247;50.840;4.382;2023-04-06T22:46:06;11.43;;;4.70;;
29206;SDS011;16247;50.840;4.382;2023-04-06T22:48:38;12.30;;;5.03;;
29206;SDS011;16247;50.840;4.382;2023-04-06T22:51:11;13.45;;;5.28;;
29206;SDS011;16247;50.840;4.382;2023-04-06T22:54:20;12.80;;;5.05;;
29206;SDS011;16247;50.840;4.382;2023-04-06T22:57:23;14.10;;;5.22;;